Time;durP1;ratioP1;P1;durP2;ratioP2;P2;SDS_P1;SDS_P2;PMS_P1;PMS_P2;Temp;Humidity;BMP_temperature;BMP_pressure;BME280_temperature;BME280_humidity;BME280_pressure;Samples;Min_cycle;Max_cycle;Signal;HPM_P1;HPM_P2
2023/05/17 00:01:55;;;;;;;6.00;2.88;;;20.50;55.10;;;;;;8219808;28;20031;-77
2023/05/17 00:05:55;;;;;;;4.60;1.90;;;20.50;55.10;;;;;;8219361;28;20374;-77
2023/05/17 00:09:56;;;;;;;3.73;1.90;;;20.50;55.00;;;;;;8219278;28;20039;-77
2023/05/17 00:13:57;;;;;;;2.83;1.60;;;20.50;55.10;;;;;;8235100;28;20282;-78
2023/05/17 00:17:57;;;;;;;3.20;1.55;;;20.50;55.00;;;;;;8203242;28;20054;-77
2023/05/17 00:21:58;;;;;;;11.50;1.90;;;20.50;55.00;;;;;;8234654;28;20070;-77
2023/05/17 00:25:59;;;;;;;5.75;1.60;;;20.50;55.10;;;;;;8234048;28;20142;-77
2023/05/17 00:29:59;;;;;;;7.32;1.58;;;20.50;55.10;;;;;;8213407;28;20035;-78
2023/05/17 00:34:00;;;;;;;3.97;1.50;;;20.50;55.10;;;;;;8218477;28;20401;-77
2023/05/17 00:38:01;;;;;;;3.28;1.83;;;20.40;55.10;;;;;;8202630;28;20058;-77
2023/05/17 00:42:02;;;;;;;4.22;1.67;;;20.40;55.20;;;;;;8234845;28;20560;-78
2023/05/17 00:46:02;;;;;;;4.00;1.38;;;20.40;55.10;;;;;;8234173;28;20433;-77
2023/05/17 00:50:04;;;;;;;7.78;1.70;;;20.40;55.20;;;;;;8218244;28;20440;-77
2023/05/17 00:54:05;;;;;;;2.63;1.50;;;20.40;55.10;;;;;;8233859;28;20081;-77
2023/05/17 00:58:06;;;;;;;2.53;1.20;;;20.50;55.20;;;;;;8233849;28;20031;-77
2023/05/17 01:02:07;;;;;;;4.57;2.28;;;20.50;55.20;;;;;;8217766;28;20441;-77
2023/05/17 01:06:07;;;;;;;2.60;1.50;;;20.50;55.20;;;;;;8217615;28;20046;-77
2023/05/17 01:10:09;;;;;;;3.72;1.75;;;20.50;55.10;;;;;;8233752;28;20078;-78
2023/05/17 01:14:28;;;;;;;;;;;20.50;55.10;;;;;;8234858;28;20042;-77
2023/05/17 01:18:43;;;;;;;4.38;1.90;;;20.50;55.00;;;;;;8234575;28;19934;-78
2023/05/17 01:22:56;;;;;;;2.80;1.27;;;20.40;55.00;;;;;;8234534;28;20393;-77
2023/05/17 01:26:59;;;;;;;3.40;1.60;;;20.40;55.10;;;;;;8234460;28;20030;-77
2023/05/17 01:31:02;;;;;;;6.15;1.58;;;20.40;55.10;;;;;;8232559;28;20082;-77
2023/05/17 01:35:06;;;;;;;3.13;1.38;;;20.50;55.10;;;;;;8216688;28;20523;-77
2023/05/17 01:39:07;;;;;;;3.03;1.40;;;20.50;55.10;;;;;;8233873;28;20023;-77
2023/05/17 01:43:37;;;;;;;;;;;20.50;55.10;;;;;;8233149;28;20047;-77
2023/05/17 01:48:08;;;;;;;2.72;1.20;;;20.50;55.00;;;;;;8197716;28;19906;-77
2023/05/17 01:52:19;;;;;;;6.78;1.45;;;20.50;55.00;;;;;;8233782;28;20034;-77
2023/05/17 01:56:25;;;;;;;2.33;1.27;;;20.50;55.10;;;;;;8232102;28;20042;-78
2023/05/17 02:00:28;;;;;;;8.50;1.77;;;20.50;55.10;;;;;;8232967;28;20066;-77
2023/05/17 02:04:29;;;;;;;2.38;0.90;;;20.50;55.10;;;;;;8232028;28;20392;-77
2023/05/17 02:08:30;;;;;;;2.95;1.20;;;20.50;55.10;;;;;;8231667;28;20035;-77
2023/05/17 02:12:31;;;;;;;3.88;1.30;;;20.50;55.20;;;;;;8232852;28;20503;-77
2023/05/17 02:16:31;;;;;;;3.15;1.30;;;20.50;55.60;;;;;;8233001;28;20046;-77
2023/05/17 02:20:32;;;;;;;2.00;1.30;;;20.50;55.10;;;;;;8215341;28;20054;-78
2023/05/17 02:24:32;;;;;;;1.67;1.20;;;20.50;55.10;;;;;;8218817;28;20031;-78
2023/05/17 02:28:33;;;;;;;4.53;1.45;;;20.50;55.10;;;;;;8195174;29;20043;-78
2023/05/17 02:32:34;;;;;;;3.72;1.25;;;20.40;55.30;;;;;;8180226;29;20405;-78
2023/05/17 02:36:34;;;;;;;2.75;1.33;;;20.40;55.30;;;;;;8164399;29;20529;-78
2023/05/17 02:40:35;;;;;;;1.52;1.25;;;20.30;55.40;;;;;;8180395;29;20069;-78
2023/05/17 02:44:36;;;;;;;1.60;1.23;;;20.30;55.50;;;;;;8165258;29;20341;-78
2023/05/17 02:48:36;;;;;;;4.27;1.07;;;20.20;55.50;;;;;;8180441;29;20035;-78
2023/05/17 02:52:37;;;;;;;5.65;1.17;;;20.20;55.50;;;;;;8188554;28;20381;-78
2023/05/17 02:56:38;;;;;;;2.47;0.90;;;20.10;55.60;;;;;;8212445;28;20113;-78
2023/05/17 03:00:38;;;;;;;2.00;1.02;;;20.10;55.60;;;;;;8212168;28;20484;-78
2023/05/17 03:04:39;;;;;;;2.17;1.10;;;20.10;55.70;;;;;;8229754;28;20035;-78
2023/05/17 03:08:40;;;;;;;4.75;1.40;;;20.10;56.00;;;;;;8212499;28;20456;-78
2023/05/17 03:12:40;;;;;;;2.13;1.25;;;20.10;55.70;;;;;;8228039;28;20043;-78
2023/05/17 03:16:41;;;;;;;2.97;1.10;;;20.10;55.80;;;;;;8229399;28;20035;-78
2023/05/17 03:20:42;;;;;;;0.70;0.70;;;20.10;55.80;;;;;;8228107;28;20073;-78
2023/05/17 03:24:42;;;;;;;2.03;1.15;;;20.00;55.80;;;;;;8229592;28;20655;-78
2023/05/17 03:28:43;;;;;;;1.73;1.10;;;20.00;55.80;;;;;;8228089;28;20113;-78
2023/05/17 03:32:44;;;;;;;2.73;1.03;;;20.00;55.80;;;;;;8211935;28;20294;-78
2023/05/17 03:36:45;;;;;;;2.42;1.00;;;20.00;55.80;;;;;;8227812;28;20051;-78
2023/05/17 03:40:45;;;;;;;0.90;0.90;;;20.00;55.80;;;;;;8211618;28;20597;-78
2023/05/17 03:44:46;;;;;;;1.75;1.42;;;20.00;55.80;;;;;;8211916;28;20085;-78
2023/05/17 03:48:47;;;;;;;1.27;0.80;;;20.00;55.80;;;;;;8227916;28;20472;-78
2023/05/17 03:52:47;;;;;;;1.43;0.80;;;20.00;55.80;;;;;;8211799;28;20297;-78
2023/05/17 03:56:49;;;;;;;2.97;1.20;;;20.00;55.80;;;;;;8227466;28;20039;-78
2023/05/17 04:00:49;;;;;;;1.70;1.10;;;20.00;55.80;;;;;;8214672;28;20049;-78
2023/05/17 04:04:51;;;;;;;2.33;1.00;;;20.00;55.80;;;;;;8233544;28;20035;-78
2023/05/17 04:08:53;;;;;;;1.20;0.98;;;19.90;56.00;;;;;;8233243;28;20830;-78
2023/05/17 04:12:54;;;;;;;0.90;0.80;;;20.00;56.00;;;;;;8233629;28;20425;-78
2023/05/17 04:16:55;;;;;;;1.53;1.00;;;20.10;56.00;;;;;;8216947;28;20105;-78
2023/05/17 04:20:55;;;;;;;1.35;0.80;;;20.10;55.80;;;;;;8216892;28;20035;-78
2023/05/17 04:24:56;;;;;;;2.20;1.08;;;20.20;55.60;;;;;;8200913;29;20035;-78
2023/05/17 04:28:57;;;;;;;1.10;0.90;;;20.20;55.40;;;;;;8216840;28;20035;-78
2023/05/17 04:32:57;;;;;;;1.30;1.00;;;20.20;55.30;;;;;;8202586;29;20035;-78
2023/05/17 04:36:58;;;;;;;0.93;0.70;;;20.20;55.20;;;;;;8200331;28;20793;-78
2023/05/17 04:41:05;;;;;;;1.75;0.80;;;20.20;55.20;;;;;;8201647;29;20279;-78
2023/05/17 04:45:06;;;;;;;1.55;0.82;;;20.20;55.20;;;;;;8184482;29;20067;-78
2023/05/17 04:49:07;;;;;;;1.65;0.90;;;20.20;55.20;;;;;;8201614;28;20494;-78
2023/05/17 04:53:08;;;;;;;2.90;1.00;;;20.20;55.20;;;;;;8211413;28;20026;-78
2023/05/17 04:57:08;;;;;;;3.50;0.95;;;20.20;55.20;;;;;;8215445;28;20046;-78
2023/05/17 05:01:09;;;;;;;1.52;1.10;;;20.20;55.30;;;;;;8215378;28;20027;-78
2023/05/17 05:05:11;;;;;;;1.48;1.10;;;20.20;55.30;;;;;;8232998;28;20034;-78
2023/05/17 05:09:11;;;;;;;1.25;0.90;;;20.20;55.30;;;;;;8231802;28;20104;-79
2023/05/17 05:13:13;;;;;;;2.63;1.00;;;20.10;55.30;;;;;;8231042;28;20035;-78
2023/05/17 05:17:14;;;;;;;1.65;0.80;;;20.10;55.30;;;;;;8199005;28;20035;-78
2023/05/17 05:21:14;;;;;;;0.97;0.80;;;20.10;55.30;;;;;;8214939;28;20540;-78
2023/05/17 05:25:15;;;;;;;1.10;0.77;;;20.10;55.30;;;;;;8214988;28;20298;-78
2023/05/17 05:29:17;;;;;;;1.42;0.88;;;20.10;55.30;;;;;;8230818;28;20365;-78
2023/05/17 05:33:18;;;;;;;1.50;0.90;;;20.10;55.30;;;;;;8231041;28;20030;-78
2023/05/17 05:37:18;;;;;;;2.20;1.00;;;20.10;55.40;;;;;;8230673;28;20062;-78
2023/05/17 05:41:19;;;;;;;0.95;0.70;;;20.10;55.40;;;;;;8230738;28;20778;-78
2023/05/17 05:45:20;;;;;;;0.90;0.73;;;20.10;55.40;;;;;;8230386;28;20405;-78
2023/05/17 05:49:21;;;;;;;1.50;1.05;;;20.10;55.60;;;;;;8214266;28;20082;-78
2023/05/17 05:53:21;;;;;;;1.05;0.90;;;20.10;55.50;;;;;;8229999;28;20122;-78
2023/05/17 05:57:22;;;;;;;0.85;0.70;;;20.10;55.50;;;;;;8231352;28;20378;-78
2023/05/17 06:01:24;;;;;;;1.70;0.85;;;20.10;55.40;;;;;;8229956;28;20033;-78
2023/05/17 06:05:24;;;;;;;1.30;0.80;;;20.10;55.40;;;;;;8229747;28;20031;-79
2023/05/17 06:09:25;;;;;;;2.15;0.98;;;20.10;55.40;;;;;;8229871;28;20070;-79
2023/05/17 06:13:26;;;;;;;1.88;0.80;;;20.10;55.40;;;;;;8213259;28;20043;-79
2023/05/17 06:17:26;;;;;;;1.73;0.77;;;20.10;55.40;;;;;;8213544;28;20031;-79
2023/05/17 06:21:27;;;;;;;0.88;0.85;;;20.10;55.40;;;;;;8229457;28;20527;-79
2023/05/17 06:25:28;;;;;;;3.47;0.90;;;20.10;55.40;;;;;;8197002;28;20035;-79
2023/05/17 06:29:28;;;;;;;0.55;0.55;;;20.10;55.40;;;;;;8229232;28;20043;-78
2023/05/17 06:33:29;;;;;;;0.57;0.57;;;20.10;55.40;;;;;;8229147;28;20072;-79
2023/05/17 06:37:31;;;;;;;0.60;0.60;;;20.10;55.40;;;;;;8228672;28;20050;-79
2023/05/17 06:41:31;;;;;;;;;;;20.10;55.40;;;;;;8229034;28;20105;-79
2023/05/17 06:45:32;;;;;;;0.87;0.80;;;20.10;55.40;;;;;;8230232;28;19917;-79
2023/05/17 06:49:33;;;;;;;0.75;0.68;;;20.10;55.40;;;;;;8228868;28;20477;-79
2023/05/17 06:53:33;;;;;;;0.95;0.80;;;20.10;55.40;;;;;;8212631;28;20035;-79
2023/05/17 06:57:35;;;;;;;1.45;0.80;;;20.10;55.50;;;;;;8228170;28;20477;-79
2023/05/17 07:01:36;;;;;;;1.05;0.70;;;20.10;55.40;;;;;;8228259;28;20389;-79
2023/05/17 07:05:36;;;;;;;0.93;0.65;;;20.10;55.50;;;;;;8229710;28;20042;-79
2023/05/17 07:09:37;;;;;;;1.45;0.90;;;20.10;55.40;;;;;;8229901;28;20559;-79
2023/05/17 07:13:38;;;;;;;1.85;0.80;;;20.10;55.40;;;;;;8229441;28;20241;-79
2023/05/17 07:17:39;;;;;;;0.73;0.63;;;20.10;55.40;;;;;;8229942;28;20509;-79
2023/05/17 07:21:40;;;;;;;0.90;0.90;;;20.10;55.40;;;;;;8213688;28;20038;-78
2023/05/17 07:25:41;;;;;;;0.68;0.65;;;20.10;55.40;;;;;;8214642;28;20041;-78
2023/05/17 07:29:42;;;;;;;;;;;20.00;55.40;;;;;;8231131;28;20059;-78
2023/05/17 07:33:43;;;;;;;0.57;0.57;;;20.00;55.40;;;;;;8240575;28;19902;-79
2023/05/17 07:37:44;;;;;;;1.02;0.93;;;20.00;55.50;;;;;;8261313;28;20090;-79
2023/05/17 07:41:45;;;;;;;1.25;0.75;;;20.00;55.50;;;;;;8261145;28;20026;-79
2023/05/17 07:45:46;;;;;;;0.97;0.70;;;20.00;55.50;;;;;;8277626;28;20035;-79
2023/05/17 07:49:47;;;;;;;0.60;0.60;;;20.00;55.50;;;;;;8245707;28;20278;-79
2023/05/17 07:53:47;;;;;;;0.80;0.60;;;20.00;55.50;;;;;;8277065;28;20042;-79
2023/05/17 07:57:48;;;;;;;0.87;0.70;;;20.00;55.50;;;;;;8276923;28;20110;-79
2023/05/17 08:01:50;;;;;;;0.52;0.52;;;20.00;55.50;;;;;;8253246;28;20772;-79
2023/05/17 08:05:50;;;;;;;1.27;0.85;;;20.00;55.60;;;;;;8235970;28;20031;-79
2023/05/17 08:09:51;;;;;;;2.53;0.67;;;20.00;55.50;;;;;;8233229;28;20030;-79
2023/05/17 08:13:51;;;;;;;0.50;0.50;;;20.00;55.50;;;;;;8217147;28;20655;-79
2023/05/17 08:17:52;;;;;;;0.60;0.60;;;20.00;55.50;;;;;;8233167;28;20039;-79
2023/05/17 08:21:53;;;;;;;0.90;0.70;;;20.00;55.40;;;;;;8233033;28;20318;-79
2023/05/17 08:25:53;;;;;;;1.40;0.90;;;20.00;55.40;;;;;;8232971;28;20034;-79
2023/05/17 08:29:56;;;;;;;0.82;0.75;;;20.10;55.50;;;;;;8232510;28;20454;-79
2023/05/17 08:33:57;;;;;;;0.80;0.70;;;20.00;55.40;;;;;;8232562;28;20034;-79
2023/05/17 08:37:58;;;;;;;0.50;0.50;;;20.10;55.40;;;;;;8233773;28;20489;-79
2023/05/17 08:42:01;;;;;;;0.65;0.60;;;20.10;55.50;;;;;;8216678;28;20477;-79
2023/05/17 08:46:03;;;;;;;2.97;0.80;;;20.10;55.50;;;;;;8232550;28;20038;-79
2023/05/17 08:50:04;;;;;;;0.63;0.50;;;20.10;55.40;;;;;;8232279;28;20063;-79
2023/05/17 08:54:05;;;;;;;0.50;0.50;;;20.10;55.30;;;;;;8232037;28;20038;-79
2023/05/17 08:58:06;;;;;;;1.00;0.60;;;20.10;55.30;;;;;;8233352;28;20062;-79
2023/05/17 09:02:07;;;;;;;0.63;0.60;;;20.10;55.30;;;;;;8215560;28;20321;-79
2023/05/17 09:06:09;;;;;;;0.60;0.55;;;20.10;55.30;;;;;;8215323;28;20042;-79
2023/05/17 09:10:12;;;;;;;0.95;0.60;;;20.10;55.30;;;;;;8199849;28;20436;-79
2023/05/17 09:14:16;;;;;;;1.00;0.68;;;20.10;55.30;;;;;;8215420;28;20118;-79
2023/05/17 09:18:17;;;;;;;0.63;0.60;;;20.10;55.30;;;;;;8232734;28;20068;-79
2023/05/17 09:22:19;;;;;;;0.50;0.45;;;20.10;55.80;;;;;;8235715;28;20031;-79
2023/05/17 09:26:20;;;;;;;;;;;20.10;55.30;;;;;;8265090;28;20046;-79
2023/05/17 09:30:28;;;;;;;0.77;0.77;;;20.10;55.30;;;;;;8264205;28;19906;-79
2023/05/17 09:34:29;;;;;;;0.45;0.45;;;20.00;55.30;;;;;;8262576;28;20476;-79
2023/05/17 09:38:30;;;;;;;;;;;20.00;55.80;;;;;;8231028;28;20472;-79
2023/05/17 09:42:35;;;;;;;0.93;0.50;;;20.00;55.90;;;;;;8262497;28;20319;-79
2023/05/17 09:46:43;;;;;;;0.52;0.52;;;20.00;55.40;;;;;;8263837;28;20034;-79
2023/05/17 09:50:45;;;;;;;1.05;0.68;;;20.00;55.40;;;;;;8262344;28;20018;-79
2023/05/17 09:54:57;;;;;;;0.75;0.50;;;20.00;55.40;;;;;;8239090;28;20618;-79
2023/05/17 09:59:00;;;;;;;1.58;0.73;;;20.00;55.40;;;;;;8213787;28;20019;-79
2023/05/17 10:03:03;;;;;;;1.45;0.90;;;20.00;55.40;;;;;;8231413;28;20491;-79
2023/05/17 10:07:04;;;;;;;0.70;0.50;;;20.00;55.40;;;;;;8229991;28;20031;-79
2023/05/17 10:11:08;;;;;;;0.80;0.60;;;20.00;55.40;;;;;;8229547;28;20112;-79
2023/05/17 10:15:11;;;;;;;0.57;0.57;;;20.00;55.40;;;;;;8229487;28;20560;-79
2023/05/17 10:19:13;;;;;;;0.60;0.60;;;20.00;55.40;;;;;;8213568;28;20033;-79
2023/05/17 10:23:15;;;;;;;0.60;0.60;;;20.00;55.40;;;;;;8230674;28;20029;-79
2023/05/17 10:27:17;;;;;;;0.50;0.50;;;20.00;55.30;;;;;;8197352;28;20515;-79
2023/05/17 10:31:19;;;;;;;1.00;0.70;;;20.00;55.30;;;;;;8228984;28;20489;-79
2023/05/17 10:35:20;;;;;;;0.52;0.50;;;20.00;55.30;;;;;;8213146;28;20050;-79
2023/05/17 10:39:21;;;;;;;;;;;20.00;55.30;;;;;;8213072;28;20079;-79
2023/05/17 10:43:23;;;;;;;0.60;0.50;;;20.00;55.30;;;;;;8228560;28;20376;-79
2023/05/17 10:47:31;;;;;;;0.50;0.50;;;20.00;55.40;;;;;;8228518;28;20114;-79
2023/05/17 10:51:35;;;;;;;0.70;0.70;;;20.00;55.40;;;;;;8228928;28;20369;-79
2023/05/17 10:55:42;;;;;;;0.73;0.60;;;20.00;55.50;;;;;;8230113;28;20094;-79
2023/05/17 10:59:57;;;;;;;1.00;0.80;;;20.00;55.30;;;;;;8212545;28;20453;-79
2023/05/17 11:04:30;;;;;;;0.40;0.40;;;20.00;55.30;;;;;;8212567;28;20027;-78
2023/05/17 11:08:31;;;;;;;0.40;0.40;;;20.00;55.30;;;;;;8228236;28;20063;-79
2023/05/17 11:12:44;;;;;;;0.75;0.70;;;20.10;55.30;;;;;;8196018;28;20551;-79
2023/05/17 11:16:45;;;;;;;0.57;0.40;;;20.00;55.30;;;;;;8228321;28;20557;-79
2023/05/17 11:21:06;;;;;;;1.53;0.80;;;20.00;55.30;;;;;;8229602;28;20421;-79
2023/05/17 11:25:13;;;;;;;1.33;0.70;;;20.00;55.30;;;;;;8228501;28;20289;-79
2023/05/17 11:29:16;;;;;;;0.57;0.57;;;20.00;55.30;;;;;;8211635;28;20543;-79
2023/05/17 11:33:18;;;;;;;0.40;0.40;;;20.00;55.30;;;;;;8228339;28;20066;-79
2023/05/17 11:37:26;;;;;;;1.05;0.50;;;20.00;55.40;;;;;;8227740;28;20047;-79
2023/05/17 11:41:27;;;;;;;0.55;0.50;;;20.00;55.40;;;;;;8211667;28;20023;-79
2023/05/17 11:45:37;;;;;;;0.45;0.45;;;20.00;55.30;;;;;;8229199;28;20069;-79
2023/05/17 11:49:39;;;;;;;0.60;0.40;;;20.00;55.30;;;;;;8227995;28;20066;-79
2023/05/17 11:53:40;;;;;;;0.43;0.43;;;20.00;55.40;;;;;;8229791;28;20038;-79
2023/05/17 11:57:42;;;;;;;0.50;0.50;;;20.00;55.40;;;;;;8227735;28;20126;-79
2023/05/17 12:01:45;;;;;;;0.90;0.57;;;19.90;55.30;;;;;;8211526;28;20031;-79
2023/05/17 12:05:47;;;;;;;0.40;0.40;;;20.00;55.40;;;;;;8229051;28;20151;-79
2023/05/17 12:09:48;;;;;;;0.50;0.50;;;20.00;55.50;;;;;;8228775;28;20441;-79
2023/05/17 12:13:50;;;;;;;0.52;0.50;;;20.00;55.50;;;;;;8227233;28;20081;-79
2023/05/17 12:17:52;;;;;;;0.70;0.70;;;20.00;55.40;;;;;;8227418;28;20035;-79
2023/05/17 12:21:53;;;;;;;0.90;0.68;;;20.00;55.30;;;;;;8231451;28;20489;-79
2023/05/17 12:26:14;;;;;;;0.50;0.50;;;20.10;55.30;;;;;;8234224;28;20448;-79
2023/05/17 12:30:16;;;;;;;0.40;0.40;;;20.10;55.20;;;;;;8232555;28;20041;-79
2023/05/17 12:34:17;;;;;;;0.90;0.60;;;20.10;55.20;;;;;;8232459;28;20346;-79
2023/05/17 12:38:18;;;;;;;;;;;20.10;55.20;;;;;;8234092;28;20494;-79
2023/05/17 12:42:19;;;;;;;0.40;0.40;;;20.10;55.20;;;;;;8232472;28;19937;-79
2023/05/17 12:46:22;;;;;;;0.50;0.50;;;20.10;55.20;;;;;;8232424;28;20142;-79
2023/05/17 12:50:29;;;;;;;0.60;0.60;;;20.10;55.20;;;;;;8233412;28;20058;-79
2023/05/17 12:54:30;;;;;;;0.52;0.40;;;20.10;55.20;;;;;;8233456;28;20045;-79
2023/05/17 12:58:31;;;;;;;0.40;0.40;;;20.10;55.20;;;;;;8234153;28;20027;-79
2023/05/17 13:02:31;;;;;;;0.57;0.50;;;20.10;55.30;;;;;;8231724;28;20487;-79
2023/05/17 13:06:55;;;;;;;0.43;0.43;;;20.00;55.20;;;;;;8233012;28;20054;-79
2023/05/17 13:11:10;;;;;;;0.47;0.47;;;20.10;55.30;;;;;;8232713;28;20282;-79
2023/05/17 13:15:10;;;;;;;0.50;0.50;;;20.00;55.30;;;;;;8231200;28;20391;-78
2023/05/17 13:19:14;;;;;;;0.40;0.40;;;20.00;55.30;;;;;;8199129;28;20027;-79
2023/05/17 13:23:15;;;;;;;0.30;0.30;;;20.00;55.30;;;;;;8231268;28;20278;-79
2023/05/17 13:27:16;;;;;;;0.60;0.60;;;20.00;55.30;;;;;;8215155;28;20085;-79
2023/05/17 13:31:16;;;;;;;0.65;0.60;;;20.00;55.30;;;;;;8231185;28;20278;-79
2023/05/17 13:35:17;;;;;;;0.47;0.47;;;20.00;55.40;;;;;;8214314;28;20576;-79
2023/05/17 13:39:18;;;;;;;0.77;0.50;;;20.00;55.40;;;;;;8232028;28;20248;-79
2023/05/17 13:43:19;;;;;;;0.73;0.45;;;20.00;55.40;;;;;;8230679;28;20066;-79
2023/05/17 13:47:20;;;;;;;1.02;0.38;;;20.00;55.40;;;;;;8214438;28;20039;-79
2023/05/17 13:51:20;;;;;;;0.75;0.57;;;20.00;55.40;;;;;;8214871;28;20497;-78
2023/05/17 13:55:21;;;;;;;0.63;0.50;;;20.00;55.30;;;;;;8214689;28;20127;-79
2023/05/17 13:59:21;;;;;;;0.47;0.47;;;20.00;55.30;;;;;;8213996;28;20281;-79
2023/05/17 14:03:22;;;;;;;0.40;0.40;;;20.00;55.30;;;;;;8231032;28;20027;-79
2023/05/17 14:07:23;;;;;;;0.60;0.60;;;20.00;55.40;;;;;;8229639;28;20066;-79
2023/05/17 14:11:23;;;;;;;0.40;0.30;;;20.00;55.50;;;;;;8229890;28;20783;-79
2023/05/17 14:15:26;;;;;;;0.50;0.50;;;20.10;55.50;;;;;;8229567;28;20290;-79
2023/05/17 14:19:26;;;;;;;0.88;0.52;;;20.10;55.40;;;;;;8229327;28;20069;-79
2023/05/17 14:23:27;;;;;;;0.55;0.43;;;20.10;55.30;;;;;;8231077;28;20038;-79
2023/05/17 14:27:28;;;;;;;1.30;0.70;;;20.10;55.20;;;;;;8229081;28;20401;-79
2023/05/17 14:31:31;;;;;;;0.73;0.70;;;20.10;54.70;;;;;;8213214;28;20030;-78
2023/05/17 14:35:31;;;;;;;0.93;0.70;;;20.10;54.80;;;;;;8190533;28;20713;-79
2023/05/17 14:39:32;;;;;;;0.77;0.40;;;20.20;55.10;;;;;;8198639;28;20035;-78
2023/05/17 14:43:33;;;;;;;0.77;0.50;;;20.20;55.00;;;;;;8207157;28;20278;-78
2023/05/17 14:47:33;;;;;;;0.57;0.50;;;20.20;55.10;;;;;;8228979;28;20081;-78
2023/05/17 14:51:34;;;;;;;0.93;0.60;;;20.20;55.40;;;;;;8213271;28;20039;-78
2023/05/17 14:55:35;;;;;;;0.83;0.53;;;20.20;55.50;;;;;;8230883;28;20031;-78
2023/05/17 14:59:36;;;;;;;0.50;0.50;;;20.30;55.50;;;;;;8230441;28;20029;-79
2023/05/17 15:03:37;;;;;;;1.02;0.60;;;20.30;55.60;;;;;;8229414;28;20054;-78
2023/05/17 15:07:38;;;;;;;0.40;0.40;;;20.40;55.50;;;;;;8230351;28;20035;-77
2023/05/17 15:11:39;;;;;;;1.10;0.65;;;20.30;55.60;;;;;;8197282;29;20055;-77
2023/05/17 15:15:39;;;;;;;;;;;20.40;55.60;;;;;;8208018;28;20045;-78
2023/05/17 15:19:40;;;;;;;0.60;0.53;;;20.40;55.50;;;;;;8211290;28;19910;-78
2023/05/17 15:23:41;;;;;;;1.17;0.45;;;20.40;55.60;;;;;;8229864;28;20564;-78
2023/05/17 15:27:42;;;;;;;8.45;0.82;;;20.50;55.60;;;;;;8230183;28;20031;-78
2023/05/17 15:31:43;;;;;;;0.70;0.70;;;20.50;55.60;;;;;;8213994;28;20511;-78
2023/05/17 15:35:43;;;;;;;0.47;0.43;;;20.50;55.50;;;;;;8232264;28;20046;-77
2023/05/17 15:39:44;;;;;;;0.73;0.63;;;20.50;55.40;;;;;;8215283;28;20031;-77
2023/05/17 15:43:44;;;;;;;0.80;0.60;;;20.50;55.40;;;;;;8234961;28;20030;-79
2023/05/17 15:47:45;;;;;;;0.60;0.60;;;20.50;55.70;;;;;;8270940;28;20370;-78
2023/05/17 15:51:46;;;;;;;0.70;0.70;;;20.50;55.40;;;;;;8272231;28;20022;-78
2023/05/17 15:55:49;;;;;;;1.85;0.70;;;20.40;55.20;;;;;;8274905;28;20057;-79
2023/05/17 15:59:50;;;;;;;0.40;0.40;;;20.40;55.20;;;;;;8261313;28;20034;-78
2023/05/17 16:03:51;;;;;;;1.40;0.75;;;20.40;55.30;;;;;;8276624;28;20065;-78
2023/05/17 16:07:52;;;;;;;0.60;0.60;;;20.40;55.30;;;;;;8277211;28;20022;-78
2023/05/17 16:11:52;;;;;;;0.80;0.70;;;20.30;55.30;;;;;;8259324;28;20121;-78
2023/05/17 16:15:54;;;;;;;1.95;0.50;;;20.30;55.30;;;;;;8250831;28;20098;-78
2023/05/17 16:19:54;;;;;;;0.82;0.50;;;20.30;55.30;;;;;;8249884;28;20522;-78
2023/05/17 16:23:55;;;;;;;2.50;0.70;;;20.20;55.40;;;;;;8217903;28;20031;-78
2023/05/17 16:27:56;;;;;;;0.82;0.60;;;20.20;55.50;;;;;;8220375;28;20040;-78
2023/05/17 16:31:56;;;;;;;0.55;0.50;;;20.20;55.40;;;;;;8213377;28;20031;-78
2023/05/17 16:35:57;;;;;;;1.48;0.65;;;20.20;55.30;;;;;;8202087;28;20158;-78
2023/05/17 16:39:58;;;;;;;0.50;0.50;;;20.20;55.30;;;;;;8201474;29;20484;-78
2023/05/17 16:43:59;;;;;;;0.73;0.73;;;20.20;55.30;;;;;;8202555;29;20027;-78
2023/05/17 16:48:00;;;;;;;1.42;0.68;;;20.20;55.30;;;;;;8200827;28;20512;-79
2023/05/17 16:52:01;;;;;;;0.82;0.73;;;20.20;55.40;;;;;;8218946;28;20101;-78
2023/05/17 16:56:02;;;;;;;1.33;0.63;;;20.20;55.30;;;;;;8234236;28;20027;-78
2023/05/17 17:00:03;;;;;;;0.82;0.80;;;20.20;55.40;;;;;;8232700;28;20403;-78
2023/05/17 17:04:03;;;;;;;1.08;0.75;;;20.20;55.40;;;;;;8232828;28;20086;-78
2023/05/17 17:08:04;;;;;;;1.00;0.65;;;20.20;55.30;;;;;;8248202;28;20034;-78
2023/05/17 17:12:06;;;;;;;1.25;0.80;;;20.20;55.30;;;;;;8216407;28;20117;-78
2023/05/17 17:16:06;;;;;;;0.88;0.65;;;20.20;55.40;;;;;;8233251;28;20046;-78
2023/05/17 17:20:08;;;;;;;0.63;0.60;;;20.20;55.40;;;;;;8232526;28;20027;-78
2023/05/17 17:24:08;;;;;;;0.93;0.80;;;20.20;55.40;;;;;;8248397;28;20069;-78
2023/05/17 17:28:09;;;;;;;0.60;0.60;;;20.20;55.40;;;;;;8231719;28;20039;-78
2023/05/17 17:32:10;;;;;;;0.80;0.80;;;20.20;55.40;;;;;;8231656;28;20038;-78
2023/05/17 17:36:10;;;;;;;0.50;0.50;;;20.20;55.30;;;;;;8199518;28;20285;-78
2023/05/17 17:40:11;;;;;;;0.73;0.73;;;20.20;55.30;;;;;;8183555;29;20130;-78
2023/05/17 17:44:12;;;;;;;1.00;0.82;;;20.20;55.30;;;;;;8183613;29;20433;-79
2023/05/17 17:48:13;;;;;;;0.65;0.60;;;20.20;55.30;;;;;;8167499;29;20042;-78
2023/05/17 17:52:13;;;;;;;0.52;0.47;;;20.20;55.40;;;;;;8187400;28;20035;-78
2023/05/17 17:56:15;;;;;;;0.70;0.70;;;20.20;55.40;;;;;;8214804;28;20034;-78
2023/05/17 18:00:16;;;;;;;0.65;0.65;;;20.20;55.40;;;;;;8231187;28;20481;-78
2023/05/17 18:04:17;;;;;;;0.52;0.52;;;20.10;55.40;;;;;;8230743;28;20413;-79
2023/05/17 18:08:17;;;;;;;0.60;0.60;;;20.10;55.40;;;;;;8214410;28;20057;-78
2023/05/17 18:12:19;;;;;;;1.13;0.70;;;20.10;55.40;;;;;;8214325;28;20074;-78
2023/05/17 18:16:20;;;;;;;0.73;0.60;;;20.10;55.40;;;;;;8246199;28;20305;-78
2023/05/17 18:20:25;;;;;;;0.57;0.57;;;20.10;55.50;;;;;;8246129;28;20540;-78
2023/05/17 18:24:25;;;;;;;0.52;0.52;;;20.10;55.50;;;;;;8231512;28;20026;-78
2023/05/17 18:28:26;;;;;;;2.63;0.50;;;20.10;55.50;;;;;;8213854;28;20030;-79
2023/05/17 18:32:29;;;;;;;2.15;0.80;;;20.10;55.50;;;;;;8231096;28;20034;-79
2023/05/17 18:36:30;;;;;;;1.27;0.60;;;20.10;55.50;;;;;;8215318;28;20085;-78
2023/05/17 18:40:30;;;;;;;0.87;0.60;;;20.10;55.70;;;;;;8229714;28;20026;-80
2023/05/17 18:44:31;;;;;;;1.37;0.90;;;20.10;55.80;;;;;;8262902;28;20365;-79
2023/05/17 18:48:34;;;;;;;0.75;0.52;;;20.20;55.90;;;;;;8244737;28;20359;-77
2023/05/17 18:52:35;;;;;;;1.83;0.85;;;20.20;55.80;;;;;;8251728;28;20463;-79
2023/05/17 18:56:36;;;;;;;1.83;0.60;;;20.30;55.70;;;;;;8276693;28;20124;-80
2023/05/17 19:00:36;;;;;;;1.00;0.80;;;20.30;55.90;;;;;;8276791;28;20289;-81
2023/05/17 19:04:37;;;;;;;4.32;0.70;;;20.40;55.40;;;;;;8276767;28;20518;-80
2023/05/17 19:08:38;;;;;;;1.65;0.70;;;20.40;55.30;;;;;;8276685;28;20037;-80
2023/05/17 19:12:38;;;;;;;1.48;0.60;;;20.40;55.20;;;;;;8276895;28;20026;-79
2023/05/17 19:16:40;;;;;;;5.85;0.80;;;20.50;55.60;;;;;;8260561;28;20045;-79
2023/05/17 19:20:40;;;;;;;;;;;20.50;55.10;;;;;;8294325;28;20040;-79
2023/05/17 19:24:41;;;;;;;1.50;0.70;;;20.50;55.10;;;;;;8277329;28;19913;-78
2023/05/17 19:28:41;;;;;;;3.50;0.90;;;20.40;55.10;;;;;;8276146;28;20034;-78
2023/05/17 19:32:42;;;;;;;1.73;0.60;;;20.40;55.10;;;;;;8282629;28;20120;-79
2023/05/17 19:36:43;;;;;;;2.20;0.80;;;20.40;55.10;;;;;;8231726;28;20668;-78
2023/05/17 19:40:43;;;;;;;3.30;1.25;;;20.40;55.10;;;;;;8218313;28;20039;-78
2023/05/17 19:44:44;;;;;;;2.00;1.42;;;20.40;55.10;;;;;;8235086;28;20046;-78
2023/05/17 19:48:45;;;;;;;5.15;1.75;;;20.40;55.10;;;;;;8234160;28;20033;-78
2023/05/17 19:52:46;;;;;;;;;;;20.40;55.10;;;;;;8235767;28;20469;-77
2023/05/17 19:56:47;;;;;;;3.93;1.73;;;20.40;55.60;;;;;;8235169;28;20287;-78
2023/05/17 20:00:47;;;;;;;4.25;2.00;;;20.40;55.10;;;;;;8233182;28;20481;-76
2023/05/17 20:04:49;;;;;;;3.13;2.22;;;20.40;55.10;;;;;;8217987;28;20385;-79
2023/05/17 20:08:49;;;;;;;5.93;2.38;;;20.40;55.10;;;;;;8227829;28;20488;-79
2023/05/17 20:12:50;;;;;;;11.43;4.00;;;20.40;55.60;;;;;;8185714;29;20397;-79
2023/05/17 20:16:51;;;;;;;14.68;4.57;;;20.40;55.10;;;;;;8187382;29;20051;-79
2023/05/17 20:20:54;;;;;;;15.95;4.47;;;20.40;55.10;;;;;;8185594;29;20039;-78
2023/05/17 20:24:55;;;;;;;16.75;5.28;;;20.40;55.10;;;;;;8226451;28;20115;-79
2023/05/17 20:28:56;;;;;;;13.48;4.82;;;20.40;55.10;;;;;;8216975;28;20038;-79
2023/05/17 20:32:57;;;;;;;16.15;4.88;;;20.40;55.20;;;;;;8234391;28;20045;-78
2023/05/17 20:36:58;;;;;;;13.25;4.75;;;20.40;55.20;;;;;;8216103;28;20051;-82
2023/05/17 20:40:59;;;;;;;18.02;6.20;;;20.40;55.70;;;;;;8231442;28;20494;-82
2023/05/17 20:45:00;;;;;;;15.95;6.15;;;20.40;55.20;;;;;;8233557;28;20095;-82
2023/05/17 20:49:00;;;;;;;15.20;6.28;;;20.40;55.20;;;;;;8232423;28;20150;-82
2023/05/17 20:53:01;;;;;;;18.70;6.25;;;20.40;55.20;;;;;;8216903;28;20034;-81
2023/05/17 20:57:02;;;;;;;16.92;6.75;;;20.40;55.20;;;;;;8233022;28;20125;-81
2023/05/17 21:01:04;;;;;;;;;;;20.40;55.20;;;;;;8215887;28;20035;-82
2023/05/17 21:05:05;;;;;;;;;;;20.40;55.20;;;;;;8216221;28;19914;-80